Time;durP1;ratioP1;P1;durP2;ratioP2;P2;SDS_P1;SDS_P2;PMS_P1;PMS_P2;Temp;Humidity;BMP_temperature;BMP_pressure;BME280_temperature;BME280_humidity;BME280_pressure;Samples;Min_cycle;Max_cycle;Signal;HPM_P1;HPM_P2
2023/12/01 00:00:29;;;;;;;53.03;24.98;;;;;;;;;;10462987;28;20214;-73
2023/12/01 00:05:29;;;;;;;57.60;26.30;;;;;;;;;;10444237;28;20012;-74
2023/12/01 00:10:29;;;;;;;57.25;25.10;;;;;;;;;;10462556;28;20083;-74
2023/12/01 00:15:29;;;;;;;56.47;26.10;;;;;;;;;;10462015;28;20191;-74
2023/12/01 00:20:29;;;;;;;53.75;25.40;;;;;;;;;;10461988;28;20043;-74
2023/12/01 00:25:30;;;;;;;51.53;24.85;;;;;;;;;;10462062;28;20311;-73
2023/12/01 00:30:30;;;;;;;50.90;25.95;;;;;;;;;;10462213;28;20151;-73
2023/12/01 00:35:31;;;;;;;55.47;26.58;;;;;;;;;;10430617;28;20028;-74
2023/12/01 00:40:31;;;;;;;44.93;24.10;;;;;;;;;;10461351;28;20009;-73
2023/12/01 00:45:31;;;;;;;51.88;25.70;;;;;;;;;;10460942;28;20063;-73
2023/12/01 00:50:31;;;;;;;53.45;24.70;;;;;;;;;;10461005;28;20333;-74
2023/12/01 00:55:32;;;;;;;49.45;26.05;;;;;;;;;;10460843;28;20063;-74
2023/12/01 01:00:32;;;;;;;48.90;24.73;;;;;;;;;;10461003;28;20020;-74
2023/12/01 01:05:32;;;;;;;56.75;24.65;;;;;;;;;;10460513;28;20036;-74
2023/12/01 01:10:33;;;;;;;51.08;23.42;;;;;;;;;;10460217;28;20036;-74
2023/12/01 01:15:33;;;;;;;49.17;23.58;;;;;;;;;;10460460;28;20032;-74
2023/12/01 01:20:33;;;;;;;58.72;25.08;;;;;;;;;;10459789;28;20017;-74
2023/12/01 01:25:33;;;;;;;43.03;22.33;;;;;;;;;;10460278;28;20100;-74
2023/12/01 01:30:34;;;;;;;55.05;24.65;;;;;;;;;;10459782;28;20044;-74
2023/12/01 01:35:34;;;;;;;53.67;25.05;;;;;;;;;;10459501;28;20025;-74
2023/12/01 01:40:34;;;;;;;56.45;25.67;;;;;;;;;;10459336;28;20317;-75
2023/12/01 01:45:34;;;;;;;54.60;26.25;;;;;;;;;;10459192;28;20223;-74
2023/12/01 01:50:34;;;;;;;51.50;24.45;;;;;;;;;;10459047;28;20207;-73
2023/12/01 01:55:35;;;;;;;52.70;26.60;;;;;;;;;;10458408;28;20042;-74
2023/12/01 02:00:35;;;;;;;49.50;23.20;;;;;;;;;;10458897;28;20024;-74
2023/12/01 02:05:35;;;;;;;46.65;23.88;;;;;;;;;;10458898;28;20021;-73
2023/12/01 02:10:36;;;;;;;51.70;25.90;;;;;;;;;;10458689;28;20017;-74
2023/12/01 02:15:36;;;;;;;45.60;22.67;;;;;;;;;;10458777;28;20573;-73
2023/12/01 02:20:36;;;;;;;49.25;23.33;;;;;;;;;;10458466;28;20227;-73
2023/12/01 02:25:37;;;;;;;49.05;22.60;;;;;;;;;;10457848;28;20032;-73
2023/12/01 02:30:37;;;;;;;44.85;22.35;;;;;;;;;;10458166;28;20103;-73
2023/12/01 02:35:37;;;;;;;59.70;23.67;;;;;;;;;;10457928;28;20017;-74
2023/12/01 02:40:42;;;;;;;47.03;20.67;;;;;;;;;;10458274;28;20453;-73
2023/12/01 02:45:43;;;;;;;43.58;19.42;;;;;;;;;;10463676;28;20307;-73
2023/12/01 02:50:45;;;;;;;38.58;16.75;;;;;;;;;;10458398;28;20016;-73
2023/12/01 02:55:45;;;;;;;37.60;18.10;;;;;;;;;;10457623;28;20092;-74
2023/12/01 03:00:47;;;;;;;32.95;16.15;;;;;;;;;;10457751;28;20429;-74
2023/12/01 03:05:47;;;;;;;33.45;15.48;;;;;;;;;;10457355;28;20334;-74
2023/12/01 03:10:48;;;;;;;26.45;13.60;;;;;;;;;;10463893;28;20025;-75
2023/12/01 03:15:49;;;;;;;30.13;14.30;;;;;;;;;;10465036;28;20346;-73
2023/12/01 03:20:50;;;;;;;23.70;11.75;;;;;;;;;;10464870;28;20210;-74
2023/12/01 03:25:50;;;;;;;25.83;13.10;;;;;;;;;;10463848;28;20048;-74
2023/12/01 03:30:51;;;;;;;25.60;12.18;;;;;;;;;;10464322;28;20025;-74
2023/12/01 03:35:51;;;;;;;23.80;11.80;;;;;;;;;;10464268;28;20063;-74
2023/12/01 03:40:52;;;;;;;23.13;10.90;;;;;;;;;;10463937;28;20024;-74
2023/12/01 03:45:52;;;;;;;17.45;9.73;;;;;;;;;;10463829;28;20307;-73
2023/12/01 03:50:53;;;;;;;21.75;11.73;;;;;;;;;;10463509;28;20045;-73
2023/12/01 03:55:53;;;;;;;20.13;10.80;;;;;;;;;;10463682;28;20235;-74
2023/12/01 04:00:53;;;;;;;22.65;9.57;;;;;;;;;;10463031;28;20049;-73
2023/12/01 04:05:53;;;;;;;16.85;8.77;;;;;;;;;;10462622;28;20020;-74
2023/12/01 04:10:55;;;;;;;15.35;8.98;;;;;;;;;;10462745;28;20021;-74
2023/12/01 04:15:55;;;;;;;14.02;7.70;;;;;;;;;;10461173;28;20333;-73
2023/12/01 04:20:57;;;;;;;15.25;6.53;;;;;;;;;;10461989;28;20029;-74
2023/12/01 04:25:57;;;;;;;11.77;6.70;;;;;;;;;;10461839;28;20028;-74
2023/12/01 04:30:58;;;;;;;11.15;5.82;;;;;;;;;;10461899;28;20027;-73
2023/12/01 04:35:58;;;;;;;10.05;5.80;;;;;;;;;;10462018;28;20024;-74
2023/12/01 04:40:58;;;;;;;12.60;6.78;;;;;;;;;;10470789;28;20350;-73
2023/12/01 04:45:59;;;;;;;9.98;7.30;;;;;;;;;;10460711;28;20249;-75
2023/12/01 04:50:59;;;;;;;18.80;7.53;;;;;;;;;;10460959;28;20021;-74
2023/12/01 04:55:59;;;;;;;15.65;7.60;;;;;;;;;;10460431;28;20009;-74
2023/12/01 05:01:00;;;;;;;14.65;8.35;;;;;;;;;;10460346;28;20060;-75
2023/12/01 05:06:01;;;;;;;14.52;7.15;;;;;;;;;;10460809;28;20060;-74
2023/12/01 05:11:04;;;;;;;10.13;5.95;;;;;;;;;;10460613;28;20029;-74
2023/12/01 05:16:05;;;;;;;10.73;5.32;;;;;;;;;;10441419;28;20020;-74
2023/12/01 05:21:08;;;;;;;7.78;5.05;;;;;;;;;;10458759;28;20044;-74
2023/12/01 05:26:11;;;;;;;13.80;5.03;;;;;;;;;;10459160;28;20040;-73
2023/12/01 05:31:11;;;;;;;13.45;4.68;;;;;;;;;;10458018;28;20319;-74
2023/12/01 05:36:14;;;;;;;6.95;3.83;;;;;;;;;;10456296;28;20028;-75
2023/12/01 05:41:15;;;;;;;9.80;4.20;;;;;;;;;;10460594;28;20028;-75
2023/12/01 05:46:15;;;;;;;11.20;4.55;;;;;;;;;;10456512;28;20029;-74
2023/12/01 05:51:15;;;;;;;9.32;4.82;;;;;;;;;;10458688;28;20092;-74
2023/12/01 05:56:15;;;;;;;12.03;5.33;;;;;;;;;;10458781;28;20047;-75
2023/12/01 06:01:16;;;;;;;9.48;5.43;;;;;;;;;;10465773;28;20088;-74
2023/12/01 06:06:16;;;;;;;11.77;5.85;;;;;;;;;;10475266;28;20033;-74
2023/12/01 06:11:17;;;;;;;6.95;4.97;;;;;;;;;;10458000;28;20311;-73
2023/12/01 06:16:18;;;;;;;11.35;4.68;;;;;;;;;;10457988;28;20088;-72
2023/12/01 06:21:18;;;;;;;9.38;4.45;;;;;;;;;;10457833;28;20033;-75
2023/12/01 06:26:18;;;;;;;12.93;5.78;;;;;;;;;;10457179;28;20254;-73
2023/12/01 06:31:19;;;;;;;13.93;5.60;;;;;;;;;;10456428;28;20319;-72
2023/12/01 06:36:19;;;;;;;8.05;4.97;;;;;;;;;;10457806;28;20295;-74
2023/12/01 06:41:19;;;;;;;7.88;4.20;;;;;;;;;;10457553;28;20020;-73
2023/12/01 06:46:19;;;;;;;13.95;6.32;;;;;;;;;;10464802;28;20036;-74
2023/12/01 06:51:20;;;;;;;7.22;4.63;;;;;;;;;;10464860;28;20008;-74
2023/12/01 06:56:20;;;;;;;9.35;4.75;;;;;;;;;;10465469;28;20033;-73
2023/12/01 07:01:20;;;;;;;9.10;4.78;;;;;;;;;;10465101;28;20026;-73
2023/12/01 07:06:22;;;;;;;7.40;4.63;;;;;;;;;;10465246;28;20092;-74
2023/12/01 07:11:22;;;;;;;10.63;5.53;;;;;;;;;;10468036;28;20097;-73
2023/12/01 07:16:22;;;;;;;15.55;6.80;;;;;;;;;;10464553;28;20192;-73
2023/12/01 07:21:22;;;;;;;13.00;7.65;;;;;;;;;;10464404;28;20269;-73
2023/12/01 07:26:26;;;;;;;13.77;8.13;;;;;;;;;;10464281;28;20033;-73
2023/12/01 07:31:26;;;;;;;18.88;9.15;;;;;;;;;;10464634;28;20307;-75
2023/12/01 07:36:28;;;;;;;17.10;8.77;;;;;;;;;;10463961;28;20094;-73
2023/12/01 07:41:28;;;;;;;21.20;8.38;;;;;;;;;;10463844;28;20268;-73
2023/12/01 07:46:31;;;;;;;17.98;8.45;;;;;;;;;;10463545;28;20303;-74
2023/12/01 07:51:35;;;;;;;15.50;8.95;;;;;;;;;;10463254;28;20325;-74
2023/12/01 07:56:35;;;;;;;18.85;9.82;;;;;;;;;;10444397;28;20017;-74
2023/12/01 08:01:36;;;;;;;19.27;9.55;;;;;;;;;;10463397;28;20029;-73
2023/12/01 08:06:36;;;;;;;12.90;6.90;;;;;;;;;;10462962;28;20029;-73
2023/12/01 08:11:36;;;;;;;13.57;7.18;;;;;;;;;;10462573;28;20009;-72
2023/12/01 08:16:36;;;;;;;12.75;5.88;;;;;;;;;;10462391;28;20019;-72
2023/12/01 08:21:37;;;;;;;21.17;7.65;;;;;;;;;;10462108;28;20020;-73
2023/12/01 08:26:37;;;;;;;12.43;6.20;;;;;;;;;;10462356;28;20286;-72
2023/12/01 08:31:39;;;;;;;7.63;4.20;;;;;;;;;;10470934;28;20207;-73
2023/12/01 08:36:39;;;;;;;11.07;4.60;;;;;;;;;;10461577;28;20595;-73
2023/12/01 08:41:39;;;;;;;8.93;4.93;;;;;;;;;;10461666;28;20025;-73
2023/12/01 08:46:39;;;;;;;15.15;5.38;;;;;;;;;;10459890;28;20085;-73
2023/12/01 08:51:40;;;;;;;8.32;4.28;;;;;;;;;;10460932;28;20016;-73
2023/12/01 08:56:41;;;;;;;9.48;3.50;;;;;;;;;;10460759;28;20020;-72
2023/12/01 09:01:41;;;;;;;12.52;5.22;;;;;;;;;;10459931;28;20509;-74
2023/12/01 09:06:42;;;;;;;11.85;3.85;;;;;;;;;;10459893;28;20043;-73
2023/12/01 09:11:42;;;;;;;6.55;3.58;;;;;;;;;;10460564;28;20017;-74
2023/12/01 09:16:42;;;;;;;6.63;2.75;;;;;;;;;;10460067;28;20013;-74
2023/12/01 09:21:42;;;;;;;8.18;3.78;;;;;;;;;;10460256;28;20024;-73
2023/12/01 09:26:42;;;;;;;7.55;2.50;;;;;;;;;;10459476;28;20041;-72
2023/12/01 09:31:43;;;;;;;6.38;3.28;;;;;;;;;;10459437;28;20432;-74
2023/12/01 09:36:44;;;;;;;8.77;3.90;;;;;;;;;;10459476;28;20021;-74
2023/12/01 09:41:44;;;;;;;7.55;3.80;;;;;;;;;;10459073;28;20378;-74
2023/12/01 09:46:47;;;;;;;7.38;3.92;;;;;;;;;;10459105;28;20075;-74
2023/12/01 09:51:48;;;;;;;10.68;4.80;;;;;;;;;;10459009;28;20047;-73
2023/12/01 09:56:48;;;;;;;6.82;3.90;;;;;;;;;;10458693;28;20013;-73
2023/12/01 10:01:48;;;;;;;9.35;4.30;;;;;;;;;;10459081;28;20467;-73
2023/12/01 10:06:48;;;;;;;13.00;6.30;;;;;;;;;;10458410;28;20408;-73
2023/12/01 10:12:03;;;;;;;10.77;4.82;;;;;;;;;;10462863;28;20270;-73
2023/12/01 10:17:04;;;;;;;5.53;3.13;;;;;;;;;;10487342;28;20041;-74
2023/12/01 10:22:06;;;;;;;6.30;3.00;;;;;;;;;;10466710;28;20032;-74
2023/12/01 10:27:08;;;;;;;7.85;3.92;;;;;;;;;;10466183;28;20072;-74
2023/12/01 10:32:11;;;;;;;8.77;4.00;;;;;;;;;;10466205;28;20017;-74
2023/12/01 10:37:11;;;;;;;8.68;4.25;;;;;;;;;;10466133;28;20028;-74
2023/12/01 10:42:12;;;;;;;9.70;4.10;;;;;;;;;;10448366;28;20331;-74
2023/12/01 10:47:14;;;;;;;5.45;3.17;;;;;;;;;;10447764;28;20029;-75
2023/12/01 10:52:15;;;;;;;8.38;3.90;;;;;;;;;;10465922;28;20263;-74
2023/12/01 10:57:15;;;;;;;9.65;3.95;;;;;;;;;;10465566;28;20028;-74
2023/12/01 11:02:16;;;;;;;12.55;3.80;;;;;;;;;;10465531;28;20246;-74
2023/12/01 11:07:35;;;;;;;12.98;4.35;;;;;;;;;;10465226;28;20037;-73
2023/12/01 11:12:56;;;;;;;9.20;5.20;;;;;;;;;;10464726;28;20315;-75
2023/12/01 11:17:56;;;;;;;10.88;4.72;;;;;;;;;;10464761;28;20017;-76
2023/12/01 11:23:22;;;;;;;11.13;5.80;;;;;;;;;;10464263;28;20024;-73
2023/12/01 11:28:26;;;;;;;11.10;5.20;;;;;;;;;;10464129;28;20064;-74
2023/12/01 11:33:31;;;;;;;10.00;5.30;;;;;;;;;;10463918;28;20021;-74
2023/12/01 11:38:51;;;;;;;12.88;6.40;;;;;;;;;;10463882;28;20066;-74
2023/12/01 11:44:03;;;;;;;14.27;5.82;;;;;;;;;;10463663;28;20036;-74
2023/12/01 11:49:04;;;;;;;18.88;6.32;;;;;;;;;;10463238;28;20329;-73
2023/12/01 11:54:04;;;;;;;20.00;7.50;;;;;;;;;;10463314;28;20040;-74
2023/12/01 11:59:08;;;;;;;12.93;7.43;;;;;;;;;;10463034;28;20028;-74
2023/12/01 12:04:09;;;;;;;14.25;7.70;;;;;;;;;;10462867;28;20273;-74
2023/12/01 12:09:10;;;;;;;12.75;6.95;;;;;;;;;;10465852;28;20039;-74
2023/12/01 12:14:10;;;;;;;19.60;8.10;;;;;;;;;;10462403;28;20017;-74
2023/12/01 12:19:10;;;;;;;14.70;7.53;;;;;;;;;;10462481;28;20024;-74
2023/12/01 12:24:11;;;;;;;15.80;7.18;;;;;;;;;;10461736;28;20350;-75
2023/12/01 12:29:11;;;;;;;14.82;6.93;;;;;;;;;;10461438;28;20036;-74
2023/12/01 12:34:12;;;;;;;16.93;7.87;;;;;;;;;;10461665;28;20044;-74
2023/12/01 12:39:16;;;;;;;19.20;7.45;;;;;;;;;;10461453;28;20468;-74
2023/12/01 12:44:16;;;;;;;13.63;6.43;;;;;;;;;;10464846;28;20088;-75
2023/12/01 12:49:18;;;;;;;13.17;7.07;;;;;;;;;;10461252;28;20028;-74
2023/12/01 12:54:18;;;;;;;16.92;7.60;;;;;;;;;;10460894;28;20445;-74
2023/12/01 12:59:19;;;;;;;16.00;7.72;;;;;;;;;;10460765;28;20080;-75
2023/12/01 13:04:20;;;;;;;14.82;7.30;;;;;;;;;;10460329;28;20025;-74
2023/12/01 13:09:20;;;;;;;14.07;7.40;;;;;;;;;;10460072;28;20245;-74
2023/12/01 13:14:20;;;;;;;12.57;5.85;;;;;;;;;;10459875;28;20024;-74
2023/12/01 13:19:21;;;;;;;8.88;5.80;;;;;;;;;;10459745;28;20045;-75
2023/12/01 13:24:21;;;;;;;9.90;5.00;;;;;;;;;;10459838;28;20013;-75
2023/12/01 13:29:21;;;;;;;11.93;4.97;;;;;;;;;;10459716;28;20083;-74
2023/12/01 13:34:22;;;;;;;9.23;4.40;;;;;;;;;;10459324;28;20095;-75
2023/12/01 13:39:22;;;;;;;12.95;4.57;;;;;;;;;;10459194;28;20024;-74
2023/12/01 13:44:23;;;;;;;7.97;3.13;;;;;;;;;;10458081;28;20043;-74
2023/12/01 13:49:23;;;;;;;6.80;4.30;;;;;;;;;;10458755;28;20433;-75
2023/12/01 13:54:23;;;;;;;11.88;4.50;;;;;;;;;;10457990;28;20029;-74
2023/12/01 13:59:23;;;;;;;10.77;4.63;;;;;;;;;;10458378;28;20017;-75
2023/12/01 14:04:24;;;;;;;15.25;6.35;;;;;;;;;;10458411;28;20023;-75
2023/12/01 14:09:24;;;;;;;15.63;5.53;;;;;;;;;;10458328;28;20012;-76
2023/12/01 14:14:25;;;;;;;12.60;5.20;;;;;;;;;;10458069;28;20088;-75
2023/12/01 14:19:26;;;;;;;10.07;4.88;;;;;;;;;;10458174;28;20020;-75
2023/12/01 14:24:27;;;;;;;11.02;4.75;;;;;;;;;;10457893;28;20041;-75
2023/12/01 14:29:27;;;;;;;9.15;5.47;;;;;;;;;;10456050;28;20069;-74
2023/12/01 14:34:28;;;;;;;14.68;5.47;;;;;;;;;;10439933;28;20028;-74
2023/12/01 14:39:28;;;;;;;21.42;8.45;;;;;;;;;;10457662;28;20080;-74
2023/12/01 14:44:28;;;;;;;4.75;0.93;;;;;;;;;;10457524;28;20310;-74
2023/12/01 14:49:28;;;;;;;18.48;5.05;;;;;;;;;;10457687;28;20016;-74
2023/12/01 14:54:29;;;;;;;11.75;3.17;;;;;;;;;;10457219;28;20020;-74
2023/12/01 14:59:29;;;;;;;7.00;3.47;;;;;;;;;;10456387;28;20090;-74
2023/12/01 15:04:29;;;;;;;7.17;3.23;;;;;;;;;;10471666;28;20021;-73
2023/12/01 15:09:29;;;;;;;6.68;2.90;;;;;;;;;;10464733;28;20051;-73
2023/12/01 15:14:30;;;;;;;8.95;3.50;;;;;;;;;;10465004;28;20319;-74
2023/12/01 15:19:30;;;;;;;7.30;2.77;;;;;;;;;;10464821;28;20036;-74
2023/12/01 15:24:30;;;;;;;5.50;2.95;;;;;;;;;;10446701;28;20495;-75
2023/12/01 15:29:30;;;;;;;5.43;2.72;;;;;;;;;;10463802;28;20288;-75
2023/12/01 15:34:31;;;;;;;11.07;3.80;;;;;;;;;;10463842;28;20021;-76
2023/12/01 15:39:31;;;;;;;8.48;3.40;;;;;;;;;;10464005;28;20024;-73
2023/12/01 15:44:32;;;;;;;7.23;3.13;;;;;;;;;;10463454;28;20021;-75
2023/12/01 15:49:32;;;;;;;5.25;1.88;;;;;;;;;;10463290;28;20319;-74
2023/12/01 15:54:32;;;;;;;4.43;2.13;;;;;;;;;;10462541;28;20024;-75
2023/12/01 15:59:33;;;;;;;8.50;3.25;;;;;;;;;;10462069;28;20063;-75
2023/12/01 16:04:35;;;;;;;9.13;3.45;;;;;;;;;;10463211;28;20241;-74
2023/12/01 16:09:35;;;;;;;5.47;2.97;;;;;;;;;;10462131;28;20012;-75
2023/12/01 16:14:36;;;;;;;4.50;2.70;;;;;;;;;;10461213;28;20325;-74
2023/12/01 16:19:36;;;;;;;7.38;2.75;;;;;;;;;;10459864;28;20028;-74
2023/12/01 16:24:38;;;;;;;9.65;3.88;;;;;;;;;;10459718;28;20023;-72
2023/12/01 16:29:38;;;;;;;11.88;5.10;;;;;;;;;;10460302;28;20104;-72
2023/12/01 16:34:38;;;;;;;11.48;5.25;;;;;;;;;;10458304;28;20337;-70
2023/12/01 16:39:39;;;;;;;13.00;5.53;;;;;;;;;;10459537;28;20033;-70
2023/12/01 16:44:39;;;;;;;12.52;5.78;;;;;;;;;;10459326;28;20033;-73
2023/12/01 16:49:39;;;;;;;15.50;5.60;;;;;;;;;;10458977;28;20039;-71
2023/12/01 16:54:42;;;;;;;11.15;5.93;;;;;;;;;;10446451;28;20218;-85
2023/12/01 16:59:43;;;;;;;9.77;5.00;;;;;;;;;;10444399;28;20180;-72
2023/12/01 17:04:43;;;;;;;8.70;3.92;;;;;;;;;;10429328;28;20021;-73
2023/12/01 17:09:43;;;;;;;9.43;3.92;;;;;;;;;;10437649;28;20048;-73
2023/12/01 17:14:46;;;;;;;12.05;5.80;;;;;;;;;;10433154;28;20112;-83
2023/12/01 17:19:46;;;;;;;12.57;4.47;;;;;;;;;;10425666;28;20097;-70
2023/12/01 17:24:47;;;;;;;8.77;3.40;;;;;;;;;;10438502;28;20038;-76
2023/12/01 17:29:47;;;;;;;7.78;3.55;;;;;;;;;;10431634;28;20089;-76
2023/12/01 17:34:49;;;;;;;10.30;4.60;;;;;;;;;;10436645;28;20048;-75
2023/12/01 17:39:49;;;;;;;10.05;4.00;;;;;;;;;;10435276;28;20028;-70
2023/12/01 17:44:49;;;;;;;10.85;4.82;;;;;;;;;;10440091;28;20326;-70
2023/12/01 17:49:50;;;;;;;8.00;3.85;;;;;;;;;;10434874;28;20020;-71
2023/12/01 17:54:50;;;;;;;11.05;4.20;;;;;;;;;;10436899;28;20016;-70
2023/12/01 17:59:50;;;;;;;9.95;3.60;;;;;;;;;;10430043;28;20028;-71
2023/12/01 18:04:51;;;;;;;11.00;4.35;;;;;;;;;;10444308;28;20031;-72
2023/12/01 18:09:51;;;;;;;4.95;2.40;;;;;;;;;;10439038;28;20020;-72
2023/12/01 18:14:52;;;;;;;6.68;4.13;;;;;;;;;;10433230;28;20025;-72
2023/12/01 18:19:52;;;;;;;9.73;4.15;;;;;;;;;;10442464;28;20032;-70
2023/12/01 18:24:52;;;;;;;10.40;3.88;;;;;;;;;;10434074;28;20057;-71
2023/12/01 18:29:52;;;;;;;12.90;4.90;;;;;;;;;;10436507;28;20068;-71
2023/12/01 18:34:53;;;;;;;12.53;5.93;;;;;;;;;;10434144;28;20275;-73
2023/12/01 18:39:53;;;;;;;9.57;4.38;;;;;;;;;;10421580;28;20064;-72
2023/12/01 18:44:54;;;;;;;11.77;4.15;;;;;;;;;;10443856;28;20120;-76
2023/12/01 18:49:54;;;;;;;11.87;4.97;;;;;;;;;;10447347;28;20012;-74
2023/12/01 18:54:54;;;;;;;12.13;4.70;;;;;;;;;;10447133;28;20025;-75
2023/12/01 18:59:54;;;;;;;13.82;6.38;;;;;;;;;;10450950;28;20021;-79
2023/12/01 19:04:58;;;;;;;13.37;4.73;;;;;;;;;;10440786;28;20033;-92
2023/12/01 19:09:58;;;;;;;12.02;4.65;;;;;;;;;;10447411;28;20528;-75
2023/12/01 19:14:58;;;;;;;10.73;4.75;;;;;;;;;;10440010;28;20067;-74
2023/12/01 19:19:58;;;;;;;16.60;5.50;;;;;;;;;;10426431;28;20096;-75
2023/12/01 19:25:02;;;;;;;9.63;4.13;;;;;;;;;;10435566;28;20092;-72
2023/12/01 19:30:03;;;;;;;13.82;5.32;;;;;;;;;;10435815;28;20061;-78
2023/12/01 19:35:26;;;;;;;9.40;3.60;;;;;;;;;;10437469;28;20303;-87
2023/12/01 19:40:27;;;;;;;8.07;2.45;;;;;;;;;;10454745;28;20029;-79
2023/12/01 19:45:28;;;;;;;10.55;3.40;;;;;;;;;;10441391;28;20063;-75
2023/12/01 19:50:29;;;;;;;10.00;4.38;;;;;;;;;;10441869;28;20020;-86
2023/12/01 19:55:29;;;;;;;5.53;2.63;;;;;;;;;;10423816;28;20024;-74
2023/12/01 20:00:29;;;;;;;5.45;2.60;;;;;;;;;;10430535;28;20417;-78
2023/12/01 20:05:30;;;;;;;8.80;4.47;;;;;;;;;;10439044;28;20346;-76
2023/12/01 20:10:30;;;;;;;7.90;3.67;;;;;;;;;;10416565;28;20100;-75
2023/12/01 20:15:30;;;;;;;9.90;3.43;;;;;;;;;;10431138;28;20051;-75
2023/12/01 20:20:31;;;;;;;8.10;3.63;;;;;;;;;;10434307;28;20505;-75
2023/12/01 20:25:31;;;;;;;7.05;3.17;;;;;;;;;;10436279;28;20021;-78
2023/12/01 20:30:31;;;;;;;8.90;3.63;;;;;;;;;;10443021;28;20045;-78
2023/12/01 20:35:32;;;;;;;9.10;3.70;;;;;;;;;;10432157;28;20424;-76
2023/12/01 20:40:32;;;;;;;9.35;4.00;;;;;;;;;;10438970;28;20258;-77
2023/12/01 20:45:32;;;;;;;12.93;4.30;;;;;;;;;;10449292;28;20040;-75
2023/12/01 20:50:33;;;;;;;8.55;3.97;;;;;;;;;;10434624;28;20352;-77
2023/12/01 20:55:52;;;;;;;11.65;3.53;;;;;;;;;;10438175;28;20325;-91
2023/12/01 21:00:53;;;;;;;5.07;1.92;;;;;;;;;;10431898;28;20233;-75
2023/12/01 21:05:53;;;;;;;3.65;2.22;;;;;;;;;;10430358;28;20053;-77
2023/12/01 21:10:53;;;;;;;9.73;3.60;;;;;;;;;;10438783;28;20324;-74
2023/12/01 21:15:53;;;;;;;7.90;3.22;;;;;;;;;;10432941;28;20370;-77
2023/12/01 21:20:54;;;;;;;6.10;3.08;;;;;;;;;;10432476;28;20099;-77
2023/12/01 21:25:54;;;;;;;4.43;2.83;;;;;;;;;;10433764;28;20030;-75
2023/12/01 21:30:54;;;;;;;8.95;2.90;;;;;;;;;;10438383;28;20029;-86
2023/12/01 21:35:54;;;;;;;7.27;3.87;;;;;;;;;;10432679;28;20096;-86
2023/12/01 21:40:55;;;;;;;6.37;2.73;;;;;;;;;;10444440;28;20175;-82
2023/12/01 21:45:55;;;;;;;5.93;2.55;;;;;;;;;;10434370;28;20028;-84
2023/12/01 21:50:56;;;;;;;5.70;2.20;;;;;;;;;;10434402;28;20024;-85
2023/12/01 21:55:59;;;;;;;5.82;1.52;;;;;;;;;;10443914;28;20196;-90
2023/12/01 22:00:59;;;;;;;8.20;2.45;;;;;;;;;;10429096;28;20040;-88
2023/12/01 22:06:00;;;;;;;6.20;2.67;;;;;;;;;;10427357;28;20013;-89
2023/12/01 22:11:00;;;;;;;8.50;2.70;;;;;;;;;;10438757;28;20017;-86
2023/12/01 22:16:01;;;;;;;4.55;2.15;;;;;;;;;;10445666;28;20307;-88
2023/12/01 22:21:01;;;;;;;6.43;2.58;;;;;;;;;;10452642;28;20067;-86
2023/12/01 22:26:01;;;;;;;11.32;3.75;;;;;;;;;;10449254;28;20112;-89
2023/12/01 22:31:02;;;;;;;8.07;3.40;;;;;;;;;;10435656;28;20155;-76
2023/12/01 22:36:02;;;;;;;7.40;3.50;;;;;;;;;;10439674;28;20029;-84
2023/12/01 22:41:02;;;;;;;6.63;3.30;;;;;;;;;;10451043;28;20040;-87
2023/12/01 22:46:03;;;;;;;13.33;3.73;;;;;;;;;;10429757;28;20092;-86
2023/12/01 22:51:04;;;;;;;5.93;3.10;;;;;;;;;;10447256;28;20023;-91
2023/12/01 22:56:05;;;;;;;5.97;3.28;;;;;;;;;;10443148;28;20021;-90
2023/12/01 23:01:06;;;;;;;6.45;3.45;;;;;;;;;;10452967;28;20027;-91
2023/12/01 23:06:22;;;;;;;5.03;2.70;;;;;;;;;;10449643;28;20029;-93
2023/12/01 23:11:22;;;;;;;13.77;3.33;;;;;;;;;;10447925;28;20013;-91
2023/12/01 23:16:22;;;;;;;7.60;3.13;;;;;;;;;;10456566;28;20018;-89
2023/12/01 23:21:23;;;;;;;5.22;2.97;;;;;;;;;;10444420;28;20092;-90
2023/12/01 23:26:23;;;;;;;11.23;2.60;;;;;;;;;;10448021;28;20266;-90
2023/12/01 23:31:23;;;;;;;9.00;3.20;;;;;;;;;;10458237;28;20025;-92
2023/12/01 23:36:24;;;;;;;4.43;2.73;;;;;;;;;;10444534;28;20327;-81
2023/12/01 23:41:24;;;;;;;5.05;2.72;;;;;;;;;;10438336;28;20271;-79
2023/12/01 23:46:24;;;;;;;7.55;2.80;;;;;;;;;;10441463;28;20037;-83
2023/12/01 23:51:24;;;;;;;7.63;2.70;;;;;;;;;;10440007;28;20021;-84
2023/12/01 23:56:25;;;;;;;4.57;2.38;;;;;;;;;;10444628;28;20134;-84
